createdAt,value
2022-12-19T00:00:34.959Z,-5.47
2022-12-19T00:03:02.686Z,-5.42
2022-12-19T00:05:30.253Z,-5.51
2022-12-19T00:07:57.996Z,-5.46
2022-12-19T00:10:26.922Z,-5.54
2022-12-19T00:12:54.834Z,-5.59
2022-12-19T00:15:22.343Z,-5.71
2022-12-19T00:17:49.832Z,-5.62
2022-12-19T00:20:18.650Z,-5.65
2022-12-19T00:22:46.372Z,-5.67
2022-12-19T00:25:13.806Z,-5.82
2022-12-19T00:27:42.113Z,-5.83
2022-12-19T00:30:10.790Z,-5.80
2022-12-19T00:32:38.622Z,-5.69
2022-12-19T00:35:06.481Z,-5.73
2022-12-19T00:37:34.948Z,-5.88
2022-12-19T00:40:04.639Z,-6.03
2022-12-19T00:42:32.221Z,-6.11
2022-12-19T00:44:59.628Z,-6.28
2022-12-19T00:47:27.193Z,-6.29
2022-12-19T00:49:54.595Z,-6.35
2022-12-19T00:52:22.163Z,-6.35
2022-12-19T00:54:51.022Z,-6.36
2022-12-19T00:57:20.221Z,-6.44
2022-12-19T00:59:47.898Z,-6.53
2022-12-19T01:02:15.509Z,-6.55
2022-12-19T01:04:43.291Z,-6.52
2022-12-19T01:07:13.193Z,-6.57
2022-12-19T01:09:40.822Z,-6.52
2022-12-19T01:12:30.302Z,-6.42
2022-12-19T01:15:04.435Z,-6.44
2022-12-19T01:17:38.685Z,-6.46
2022-12-19T01:20:29.227Z,-6.51
2022-12-19T01:23:00.421Z,-6.54
2022-12-19T01:25:28.574Z,-6.57
2022-12-19T01:27:56.939Z,-6.52
2022-12-19T01:30:24.673Z,-6.56
2022-12-19T01:32:53.560Z,-6.57
2022-12-19T01:35:22.209Z,-6.58
2022-12-19T01:37:55.881Z,-6.62
2022-12-19T01:40:35.111Z,-6.55
2022-12-19T01:43:05.061Z,-6.51
2022-12-19T01:45:35.929Z,-6.58
2022-12-19T01:48:12.577Z,-6.51
2022-12-19T01:51:01.802Z,-6.57
2022-12-19T01:53:48.655Z,-6.53
2022-12-19T01:56:24.700Z,-6.52
2022-12-19T01:59:06.521Z,-6.55
2022-12-19T02:01:48.546Z,-6.53
2022-12-19T02:04:24.358Z,-6.53
2022-12-19T02:06:57.653Z,-6.47
2022-12-19T02:09:25.459Z,-6.51
2022-12-19T02:11:53.964Z,-6.57
2022-12-19T02:14:22.185Z,-6.48
2022-12-19T02:17:18.260Z,-6.51
2022-12-19T02:19:58.088Z,-6.47
2022-12-19T02:22:58.867Z,-6.49
2022-12-19T02:25:48.041Z,-6.43
2022-12-19T02:28:22.798Z,-6.38
2022-12-19T02:31:20.352Z,-6.44
2022-12-19T02:33:58.895Z,-6.26
2022-12-19T02:36:41.919Z,-6.30
2022-12-19T02:39:18.104Z,-6.25
2022-12-19T02:41:51.806Z,-6.24
2022-12-19T02:44:29.527Z,-6.21
2022-12-19T02:47:00.499Z,-6.20
2022-12-19T02:49:30.965Z,-6.18
2022-12-19T02:52:11.466Z,-6.21
2022-12-19T02:54:45.146Z,-6.22
2022-12-19T02:57:28.146Z,-6.10
2022-12-19T03:00:08.590Z,-6.11
2022-12-19T03:03:03.578Z,-6.12
2022-12-19T03:05:34.479Z,-6.06
2022-12-19T03:09:00.628Z,-6.03
2022-12-19T03:11:36.276Z,-6.08
2022-12-19T03:14:12.465Z,-6.01
2022-12-19T03:16:41.462Z,-6.01
2022-12-19T03:19:12.336Z,-5.84
2022-12-19T03:21:45.445Z,-5.89
2022-12-19T03:24:14.988Z,-5.95
2022-12-19T03:26:50.585Z,-5.81
2022-12-19T03:29:24.713Z,-5.72
2022-12-19T03:31:53.199Z,-5.74
2022-12-19T03:34:45.183Z,-5.72
2022-12-19T03:37:20.861Z,-5.64
2022-12-19T03:39:54.657Z,-5.67
2022-12-19T03:42:44.433Z,-5.66
2022-12-19T03:45:15.742Z,-5.61
2022-12-19T03:47:54.284Z,-5.51
2022-12-19T03:50:26.089Z,-5.57
2022-12-19T03:53:12.174Z,-5.54
2022-12-19T03:55:53.710Z,-5.45
2022-12-19T03:58:45.796Z,-5.45
2022-12-19T04:01:13.919Z,-5.36
2022-12-19T04:03:41.481Z,-5.44
2022-12-19T04:06:10.153Z,-5.44
2022-12-19T04:08:38.192Z,-5.36
2022-12-19T04:11:11.141Z,-5.43
2022-12-19T04:13:44.663Z,-5.41
2022-12-19T04:16:38.783Z,-5.41
2022-12-19T04:19:16.988Z,-5.35
2022-12-19T04:21:52.791Z,-5.30
2022-12-19T04:24:28.200Z,-5.32
2022-12-19T04:26:57.701Z,-5.28
2022-12-19T04:29:28.748Z,-5.22
2022-12-19T04:31:56.987Z,-5.24
2022-12-19T04:34:24.418Z,-5.25
2022-12-19T04:36:51.908Z,-5.20
2022-12-19T04:39:19.489Z,-5.16
2022-12-19T04:41:46.990Z,-5.18
2022-12-19T04:44:14.497Z,-5.13
2022-12-19T04:46:42.162Z,-5.09
2022-12-19T04:49:09.676Z,-5.03
2022-12-19T04:51:37.220Z,-5.03
2022-12-19T04:54:04.695Z,-5.01
2022-12-19T04:56:32.375Z,-5.03
2022-12-19T04:59:00.559Z,-4.99
2022-12-19T05:01:28.209Z,-4.97
2022-12-19T05:03:59.917Z,-4.94
2022-12-19T05:06:30.445Z,-4.97
2022-12-19T05:10:06.474Z,-4.96
2022-12-19T05:12:34.163Z,-4.91
2022-12-19T05:15:01.811Z,-4.91
2022-12-19T05:17:29.363Z,-4.87
2022-12-19T05:19:56.927Z,-4.84
2022-12-19T05:22:27.519Z,-4.83
2022-12-19T05:24:55.068Z,-4.80
2022-12-19T05:27:22.714Z,-4.88
2022-12-19T05:29:50.208Z,-4.88
2022-12-19T05:32:18.011Z,-4.89
2022-12-19T05:34:45.558Z,-4.93
2022-12-19T05:37:13.039Z,-4.89
2022-12-19T05:39:40.678Z,-4.91
2022-12-19T05:42:12.193Z,-5.00
2022-12-19T05:44:40.137Z,-5.02
2022-12-19T05:47:08.177Z,-5.04
2022-12-19T05:49:35.746Z,-5.09
2022-12-19T05:52:03.183Z,-5.09
2022-12-19T05:54:30.748Z,-5.15
2022-12-19T05:56:58.368Z,-5.12
2022-12-19T05:59:27.344Z,-5.10
2022-12-19T06:01:54.871Z,-5.00
2022-12-19T06:04:22.501Z,-4.99
2022-12-19T06:06:49.963Z,-4.98
2022-12-19T06:09:17.609Z,-4.95
2022-12-19T06:11:45.040Z,-4.90
2022-12-19T06:14:13.690Z,-4.88
2022-12-19T06:16:41.207Z,-4.85
2022-12-19T06:19:08.895Z,-4.82
2022-12-19T06:21:39.767Z,-4.72
2022-12-19T06:24:13.153Z,-4.78
2022-12-19T06:26:40.799Z,-4.76
2022-12-19T06:29:08.346Z,-4.77
2022-12-19T06:31:35.881Z,-4.77
2022-12-19T06:34:03.452Z,-4.78
2022-12-19T06:36:31.846Z,-4.78
2022-12-19T06:38:59.455Z,-4.76
2022-12-19T06:41:46.387Z,-4.78
2022-12-19T06:44:15.982Z,-4.78
2022-12-19T06:46:44.135Z,-4.70
2022-12-19T06:49:12.165Z,-4.70
2022-12-19T06:51:40.165Z,-4.71
2022-12-19T06:54:07.739Z,-4.63
2022-12-19T06:56:37.252Z,-4.63
2022-12-19T06:59:06.172Z,-4.61
2022-12-19T07:01:58.315Z,-4.57
2022-12-19T07:04:40.418Z,-4.54
2022-12-19T07:07:08.224Z,-4.55
2022-12-19T07:09:35.705Z,-4.52
2022-12-19T07:12:03.497Z,-4.48
2022-12-19T07:14:33.862Z,-4.41
2022-12-19T07:17:03.191Z,-4.38
2022-12-19T07:19:33.040Z,-4.33
2022-12-19T07:22:02.427Z,-4.34
2022-12-19T07:24:30.506Z,-4.29
2022-12-19T07:26:58.667Z,-4.33
2022-12-19T07:29:26.878Z,-4.20
2022-12-19T07:31:54.659Z,-4.24
2022-12-19T07:34:22.254Z,-4.19
2022-12-19T07:36:52.447Z,-4.13
2022-12-19T07:39:19.906Z,-4.04
2022-12-19T07:41:47.642Z,-4.05
2022-12-19T07:44:16.683Z,-4.02
2022-12-19T07:46:45.243Z,-4.01
2022-12-19T07:49:14.226Z,-3.97
2022-12-19T07:51:43.377Z,-3.91
2022-12-19T07:54:10.989Z,-3.85
2022-12-19T07:56:38.466Z,-3.82
2022-12-19T07:59:05.867Z,-3.84
2022-12-19T08:01:33.510Z,-3.74
2022-12-19T08:04:01.226Z,-3.78
2022-12-19T08:06:28.827Z,-3.71
2022-12-19T08:08:57.287Z,-3.66
2022-12-19T08:11:29.579Z,-3.71
2022-12-19T08:13:58.205Z,-3.69
2022-12-19T08:16:27.759Z,-3.77
2022-12-19T08:18:55.929Z,-3.70
2022-12-19T08:21:24.018Z,-3.90
2022-12-19T08:23:52.978Z,-3.79
2022-12-19T08:26:25.384Z,-3.80
2022-12-19T08:28:55.432Z,-3.76
2022-12-19T08:31:25.652Z,-3.76
2022-12-19T08:33:55.100Z,-3.83
2022-12-19T08:36:23.574Z,-3.70
2022-12-19T08:38:51.193Z,-3.63
2022-12-19T08:41:19.276Z,-3.60
2022-12-19T08:43:51.823Z,-3.58
2022-12-19T08:46:20.694Z,-3.46
2022-12-19T08:48:48.307Z,-3.54
2022-12-19T08:51:17.298Z,-3.46
2022-12-19T08:53:46.460Z,-3.44
2022-12-19T08:56:20.194Z,-3.55
2022-12-19T08:58:48.846Z,-3.44
2022-12-19T09:01:19.459Z,-3.41
2022-12-19T09:04:22.583Z,-3.40
2022-12-19T09:06:35.352Z,-3.37
2022-12-19T09:09:04.140Z,-3.27
2022-12-19T09:11:31.849Z,-3.32
2022-12-19T09:13:59.599Z,-3.27
2022-12-19T09:16:28.976Z,-3.25
2022-12-19T09:18:58.980Z,-3.26
2022-12-19T09:21:30.530Z,-3.24
2022-12-19T09:24:07.095Z,-3.17
2022-12-19T09:26:36.033Z,-3.20
2022-12-19T09:29:08.711Z,-3.03
2022-12-19T09:31:55.465Z,-2.91
2022-12-19T09:34:29.974Z,-2.96
2022-12-19T09:37:16.927Z,-2.95
2022-12-19T09:39:46.718Z,-3.03
2022-12-19T09:42:27.704Z,-2.98
2022-12-19T09:45:29.928Z,-2.97
2022-12-19T09:48:01.633Z,-2.82
2022-12-19T09:50:54.645Z,-2.79
2022-12-19T09:53:33.045Z,-2.82
2022-12-19T09:56:03.052Z,-2.89
2022-12-19T09:58:41.295Z,-2.83
2022-12-19T10:01:19.555Z,-2.83
2022-12-19T10:04:12.154Z,-2.91
2022-12-19T10:07:11.539Z,-2.88
2022-12-19T10:11:27.829Z,-2.88
2022-12-19T10:12:44.543Z,-2.82
2022-12-19T10:15:59.814Z,-2.88
2022-12-19T10:18:34.137Z,-2.89
2022-12-19T10:21:09.677Z,-2.73
2022-12-19T10:23:55.912Z,-2.74
2022-12-19T10:26:35.382Z,-2.73
2022-12-19T10:29:05.773Z,-2.63
2022-12-19T10:31:53.527Z,-2.58
2022-12-19T10:34:32.699Z,-2.59
2022-12-19T10:37:34.302Z,-2.54
2022-12-19T10:40:27.799Z,-2.52
2022-12-19T10:43:15.265Z,-2.60
2022-12-19T10:45:51.995Z,-2.57
2022-12-19T10:48:30.783Z,-2.55
2022-12-19T10:51:02.070Z,-2.48
2022-12-19T10:53:34.463Z,-2.61
2022-12-19T10:56:13.215Z,-2.52
2022-12-19T10:58:43.727Z,-2.46
2022-12-19T11:01:15.780Z,-2.34
2022-12-19T11:03:48.316Z,-2.34
2022-12-19T11:06:51.619Z,-2.50
2022-12-19T11:09:30.960Z,-2.44
2022-12-19T11:15:21.803Z,-2.36
2022-12-19T11:20:26.306Z,-2.22
2022-12-19T11:22:14.546Z,-2.20
2022-12-19T11:30:05.066Z,-2.31
2022-12-19T11:30:25.641Z,-2.32
2022-12-19T11:30:45.505Z,-2.38
2022-12-19T11:32:45.020Z,-2.21
2022-12-19T11:35:36.666Z,-2.33
2022-12-19T11:38:08.509Z,-2.21
2022-12-19T11:40:57.846Z,-2.34
2022-12-19T11:43:43.749Z,-2.38
2022-12-19T11:46:22.031Z,-2.31
2022-12-19T11:49:03.050Z,-2.32
2022-12-19T11:51:42.772Z,-2.36
2022-12-19T11:54:24.208Z,-2.26
2022-12-19T11:56:51.790Z,-2.30
2022-12-19T11:59:24.731Z,-2.29
2022-12-19T12:02:20.167Z,-2.08
2022-12-19T12:05:24.403Z,-1.98
2022-12-19T12:09:59.334Z,-2.13
2022-12-19T12:20:25.278Z,-2.19
2022-12-19T12:21:05.474Z,-2.26
2022-12-19T12:22:00.704Z,-2.34
2022-12-19T12:31:17.848Z,-2.31
2022-12-19T12:31:45.834Z,-2.31
2022-12-19T12:32:06.048Z,-2.26
2022-12-19T12:35:14.335Z,-2.34
2022-12-19T12:35:50.922Z,-2.27
2022-12-19T12:38:38.023Z,-2.04
2022-12-19T12:41:48.244Z,-2.02
2022-12-19T12:44:15.941Z,-1.96
2022-12-19T12:46:54.892Z,-2.02
2022-12-19T12:49:33.775Z,-1.95
2022-12-19T12:52:03.443Z,-1.87
2022-12-19T12:54:37.893Z,-1.80
2022-12-19T12:57:05.957Z,-1.76
2022-12-19T12:59:33.793Z,-1.68
2022-12-19T13:02:24.689Z,-1.68
2022-12-19T13:05:01.218Z,-1.56
2022-12-19T13:07:51.342Z,-1.51
2022-12-19T13:10:24.421Z,-1.54
2022-12-19T13:13:02.689Z,-1.68
2022-12-19T13:15:32.207Z,-1.66
2022-12-19T13:18:38.191Z,-1.72
2022-12-19T13:21:08.238Z,-1.53
2022-12-19T13:23:39.055Z,-1.56
2022-12-19T13:26:21.158Z,-1.58
2022-12-19T13:28:48.961Z,-1.35
2022-12-19T13:31:21.904Z,-1.52
2022-12-19T13:33:56.016Z,-1.53
2022-12-19T13:39:58.313Z,-1.38
2022-12-19T13:40:32.553Z,-1.44
2022-12-19T13:43:34.641Z,-1.46
2022-12-19T13:46:32.379Z,-1.40
2022-12-19T13:49:06.282Z,-1.32
2022-12-19T13:51:57.166Z,-1.37
2022-12-19T13:54:33.092Z,-1.38
2022-12-19T13:57:08.025Z,-1.42
2022-12-19T13:59:39.265Z,-1.48
2022-12-19T14:02:16.082Z,-1.46
2022-12-19T14:04:45.562Z,-1.48
2022-12-19T14:07:34.813Z,-1.51
2022-12-19T14:11:29.733Z,-1.53
2022-12-19T14:13:45.140Z,-1.49
2022-12-19T14:16:04.448Z,-1.44
2022-12-19T14:18:44.868Z,-1.45
2022-12-19T14:22:11.645Z,-1.41
2022-12-19T14:24:20.932Z,-1.36
2022-12-19T14:28:23.836Z,-1.34
2022-12-19T14:30:29.902Z,-1.31
2022-12-19T14:33:44.432Z,-1.35
2022-12-19T14:36:10.440Z,-1.29
2022-12-19T14:39:20.965Z,-1.21
2022-12-19T14:42:03.219Z,-1.16
2022-12-19T14:52:11.542Z,-1.19
2022-12-19T14:53:51.615Z,-1.17
2022-12-19T14:54:29.064Z,-1.10
2022-12-19T14:54:41.627Z,-1.11
2022-12-19T14:59:17.660Z,-1.04
2022-12-19T15:02:06.379Z,-1.03
2022-12-19T15:04:54.851Z,-0.96
2022-12-19T15:07:28.942Z,-0.99
2022-12-19T15:11:05.452Z,-0.95
2022-12-19T15:14:57.724Z,-0.94
2022-12-19T15:16:30.080Z,-0.95
2022-12-19T15:19:00.428Z,-0.98
2022-12-19T15:21:32.293Z,-1.06
2022-12-19T15:24:00.018Z,-1.04
2022-12-19T15:26:36.341Z,-1.08
2022-12-19T15:29:14.099Z,-1.05
2022-12-19T15:31:45.832Z,-1.06
2022-12-19T15:34:48.299Z,-1.04
2022-12-19T15:37:15.901Z,-1.07
2022-12-19T15:39:44.788Z,-1.02
2022-12-19T15:42:31.438Z,-1.05
2022-12-19T15:45:01.243Z,-0.94
2022-12-19T15:47:37.005Z,-0.96
2022-12-19T15:50:23.360Z,-0.96
2022-12-19T15:52:55.073Z,-0.98
2022-12-19T15:55:25.388Z,-1.00
2022-12-19T15:57:58.670Z,-0.96
2022-12-19T16:00:29.561Z,-0.97
2022-12-19T16:03:23.195Z,-0.99
2022-12-19T16:05:46.058Z,-0.94
2022-12-19T16:08:16.129Z,-0.93
2022-12-19T16:10:46.198Z,-0.98
2022-12-19T16:13:21.355Z,-0.97
2022-12-19T16:15:49.731Z,-1.03
2022-12-19T16:18:19.979Z,-0.98
2022-12-19T16:20:48.349Z,-1.01
2022-12-19T16:23:16.169Z,-1.14
2022-12-19T16:25:47.477Z,-1.12
2022-12-19T16:28:16.767Z,-1.12
2022-12-19T16:30:44.736Z,-1.14
2022-12-19T16:33:20.228Z,-1.15
2022-12-19T16:36:06.132Z,-1.14
2022-12-19T16:38:34.848Z,-1.13
2022-12-19T16:41:02.747Z,-1.10
2022-12-19T16:43:33.960Z,-1.12
2022-12-19T16:46:04.227Z,-1.06
2022-12-19T16:48:32.152Z,-1.15
2022-12-19T16:51:00.042Z,-1.09
2022-12-19T16:53:27.975Z,-1.09
2022-12-19T16:55:57.545Z,-1.13
2022-12-19T16:58:27.494Z,-1.11
2022-12-19T17:00:56.160Z,-1.07
2022-12-19T17:03:32.820Z,-1.08
2022-12-19T17:06:01.398Z,-1.02
2022-12-19T17:08:28.866Z,-1.01
2022-12-19T17:10:56.608Z,-1.02
2022-12-19T17:13:25.038Z,-1.10
2022-12-19T17:15:56.744Z,-1.06
2022-12-19T17:18:24.847Z,-1.03
2022-12-19T17:20:52.258Z,-0.98
2022-12-19T17:23:24.429Z,-1.00
2022-12-19T17:25:54.539Z,-0.98
2022-12-19T17:28:22.755Z,-0.92
2022-12-19T17:30:57.631Z,-0.87
2022-12-19T17:33:33.147Z,-0.89
2022-12-19T17:36:02.041Z,-0.80
2022-12-19T17:38:29.547Z,-0.77
2022-12-19T17:40:57.272Z,-0.79
2022-12-19T17:43:25.127Z,-0.81
2022-12-19T17:45:52.850Z,-0.82
2022-12-19T17:48:28.150Z,-0.80
2022-12-19T17:50:56.505Z,-0.73
2022-12-19T17:53:24.754Z,-0.75
2022-12-19T17:55:52.501Z,-0.76
2022-12-19T17:58:19.942Z,-0.74
2022-12-19T18:00:48.063Z,-0.75
2022-12-19T18:03:26.428Z,-0.75
2022-12-19T18:05:55.692Z,-0.73
2022-12-19T18:08:32.447Z,-0.71
2022-12-19T18:11:02.183Z,-0.69
2022-12-19T18:13:31.281Z,-0.72
2022-12-19T18:16:01.343Z,-0.68
2022-12-19T18:18:35.659Z,-0.66
2022-12-19T18:21:04.433Z,-0.65
2022-12-19T18:23:32.364Z,-0.66
2022-12-19T18:26:02.206Z,-0.59
2022-12-19T18:28:30.857Z,-0.58
2022-12-19T18:31:22.233Z,-0.57
2022-12-19T18:33:50.464Z,-0.58
2022-12-19T18:36:21.001Z,-0.54
2022-12-19T18:38:49.553Z,-0.51
2022-12-19T18:41:18.197Z,-0.49
2022-12-19T18:43:46.196Z,-0.50
2022-12-19T18:46:16.378Z,-0.62
2022-12-19T18:48:45.271Z,-0.52
2022-12-19T18:51:18.963Z,-0.52
2022-12-19T18:53:48.758Z,-0.54
2022-12-19T18:56:16.461Z,-0.46
2022-12-19T18:58:43.962Z,-0.48
2022-12-19T19:01:15.872Z,-0.48
2022-12-19T19:03:51.965Z,-0.37
2022-12-19T19:06:22.806Z,-0.41
2022-12-19T19:08:53.432Z,-0.32
2022-12-19T19:11:33.548Z,-0.27
2022-12-19T19:14:01.096Z,-0.25
2022-12-19T19:16:28.850Z,-0.28
2022-12-19T19:18:58.727Z,-0.31
2022-12-19T19:21:32.634Z,-0.21
2022-12-19T19:24:00.157Z,-0.32
2022-12-19T19:26:27.711Z,-0.33
2022-12-19T19:28:55.336Z,-0.38
2022-12-19T19:31:26.685Z,-0.36
2022-12-19T19:34:00.777Z,-0.37
2022-12-19T19:36:31.209Z,-0.41
2022-12-19T19:38:58.834Z,-0.38
2022-12-19T19:41:30.301Z,-0.34
2022-12-19T19:43:59.889Z,-0.30
2022-12-19T19:46:28.168Z,-0.20
2022-12-19T19:48:57.663Z,-0.24
2022-12-19T19:51:25.442Z,-0.25
2022-12-19T19:53:53.002Z,-0.23
2022-12-19T19:56:20.522Z,-0.39
2022-12-19T19:58:48.030Z,-0.48
2022-12-19T20:01:15.626Z,-0.49
2022-12-19T20:03:45.226Z,-0.55
2022-12-19T20:06:12.972Z,-0.59
2022-12-19T20:08:41.137Z,-0.63
2022-12-19T20:11:09.588Z,-0.73
2022-12-19T20:13:37.779Z,-0.81
2022-12-19T20:16:08.741Z,-0.87
2022-12-19T20:18:37.537Z,-1.05
2022-12-19T20:21:13.449Z,-1.02
2022-12-19T20:23:43.104Z,-1.07
2022-12-19T20:26:16.616Z,-1.08
2022-12-19T20:28:48.863Z,-1.14
2022-12-19T20:31:19.762Z,-1.11
2022-12-19T20:33:48.712Z,-1.10
2022-12-19T20:36:16.882Z,-1.01
2022-12-19T20:38:44.957Z,-0.89
2022-12-19T20:41:13.002Z,-0.87
2022-12-19T20:43:41.526Z,-0.87
2022-12-19T20:46:14.993Z,-0.87
2022-12-19T20:48:42.562Z,-0.80
2022-12-19T20:51:10.398Z,-0.79
2022-12-19T20:53:39.148Z,-0.86
2022-12-19T20:56:07.962Z,-0.87
2022-12-19T20:58:37.287Z,-0.94
2022-12-19T21:01:11.314Z,-1.03
2022-12-19T21:03:39.744Z,-1.01
2022-12-19T21:06:08.887Z,-1.03
2022-12-19T21:08:36.825Z,-1.06
2022-12-19T21:11:06.154Z,-1.11
2022-12-19T21:13:34.545Z,-1.10
2022-12-19T21:16:04.461Z,-1.10
2022-12-19T21:18:32.096Z,-1.06
2022-12-19T21:21:00.396Z,-1.09
2022-12-19T21:23:28.782Z,-1.14
2022-12-19T21:26:01.707Z,-1.03
2022-12-19T21:28:29.589Z,-1.05
2022-12-19T21:31:03.250Z,-1.07
2022-12-19T21:33:31.193Z,-1.02
2022-12-19T21:36:05.577Z,-0.93
2022-12-19T21:38:33.126Z,-0.86
2022-12-19T21:41:06.008Z,-0.87
2022-12-19T21:43:34.610Z,-0.83
2022-12-19T21:46:12.702Z,-0.95
2022-12-19T21:48:43.212Z,-0.79
2022-12-19T21:51:11.955Z,-0.72
2022-12-19T21:53:40.000Z,-0.78
2022-12-19T21:56:19.914Z,-0.71
2022-12-19T21:58:47.412Z,-0.79
2022-12-19T22:01:15.711Z,-0.78
2022-12-19T22:03:43.713Z,-0.78
2022-12-19T22:06:27.383Z,-0.71
2022-12-19T22:08:56.100Z,-0.68
2022-12-19T22:11:24.307Z,-0.69
2022-12-19T22:13:52.106Z,-0.66
2022-12-19T22:16:19.745Z,-0.59
2022-12-19T22:18:47.626Z,-0.58
2022-12-19T22:21:15.757Z,-0.57
2022-12-19T22:23:43.515Z,-0.59
2022-12-19T22:26:17.669Z,-0.48
2022-12-19T22:28:47.497Z,-0.47
2022-12-19T22:31:23.277Z,-0.49
2022-12-19T22:33:52.982Z,-0.49
2022-12-19T22:36:27.641Z,-0.53
2022-12-19T22:38:58.191Z,-0.55
2022-12-19T22:41:26.917Z,-0.47
2022-12-19T22:43:55.097Z,-0.49
2022-12-19T22:46:27.970Z,-0.49
2022-12-19T22:48:57.625Z,-0.60
2022-12-19T22:51:26.641Z,-0.64
2022-12-19T22:53:54.844Z,-0.70
2022-12-19T22:56:25.311Z,-0.74
2022-12-19T22:58:55.648Z,-0.66
2022-12-19T23:01:25.526Z,-0.69
2022-12-19T23:03:55.943Z,-0.63
2022-12-19T23:06:26.022Z,-0.62
2022-12-19T23:08:54.117Z,-0.50
2022-12-19T23:11:29.146Z,-0.62
2022-12-19T23:13:57.055Z,-0.64
2022-12-19T23:16:24.593Z,-0.64
2022-12-19T23:18:52.118Z,-0.64
2022-12-19T23:21:21.955Z,-0.72
2022-12-19T23:23:52.338Z,-0.77
2022-12-19T23:26:23.457Z,-0.75
2022-12-19T23:28:56.742Z,-0.78
2022-12-19T23:31:25.216Z,-0.75
2022-12-19T23:33:53.687Z,-0.78
2022-12-19T23:36:44.981Z,-0.85
2022-12-19T23:39:11.073Z,-0.85
2022-12-19T23:41:39.187Z,-0.85
2022-12-19T23:44:08.009Z,-0.86
2022-12-19T23:46:35.823Z,-0.87
2022-12-19T23:49:03.910Z,-0.83
2022-12-19T23:51:31.656Z,-0.86
2022-12-19T23:53:59.252Z,-0.84
2022-12-19T23:56:29.990Z,-0.81
2022-12-19T23:58:58.710Z,-0.92
